Time;durP1;ratioP1;P1;durP2;ratioP2;P2;SDS_P1;SDS_P2;PMS_P1;PMS_P2;Temp;Humidity;BMP_temperature;BMP_pressure;BME280_temperature;BME280_humidity;BME280_pressure;Samples;Min_cycle;Max_cycle;Signal;HPM_P1;HPM_P2
2023/12/13 00:00:09;;;;;;;10.50;4.77;;;;;;;7.16;100.00;98927.00;4955536;28;20318;-74
2023/12/13 00:02:35;;;;;;;9.33;4.63;;;;;;;7.12;100.00;98929.63;4949673;28;20669;-73
2023/12/13 00:05:02;;;;;;;10.53;4.33;;;;;;;7.10;100.00;98927.00;4948014;28;20762;-74
2023/12/13 00:07:29;;;;;;;11.10;4.67;;;;;;;7.11;100.00;98926.13;4950791;28;20314;-74
2023/12/13 00:09:55;;;;;;;10.00;5.00;;;;;;;7.07;100.00;98919.09;4961881;28;20230;-74
2023/12/13 00:12:22;;;;;;;9.83;4.53;;;;;;;7.15;100.00;98927.00;4954537;28;20302;-74
2023/12/13 00:14:48;;;;;;;9.40;4.30;;;;;;;7.16;100.00;98921.75;4955078;28;20205;-74
2023/12/13 00:17:15;;;;;;;10.00;4.73;;;;;;;7.16;100.00;98910.34;4950947;28;20233;-74
2023/12/13 00:19:41;;;;;;;11.03;4.60;;;;;;;7.11;100.00;98905.06;4950453;28;20446;-74
2023/12/13 00:22:08;;;;;;;10.67;4.83;;;;;;;7.16;100.00;98911.22;4950357;28;20643;-74
2023/12/13 00:24:34;;;;;;;8.67;4.70;;;;;;;7.29;100.00;98920.03;4945885;28;20273;-74
2023/12/13 00:27:01;;;;;;;13.17;5.20;;;;;;;7.22;100.00;98913.88;4951029;28;20232;-74
2023/12/13 00:29:27;;;;;;;10.27;5.03;;;;;;;7.24;100.00;98913.91;4949867;28;20232;-74
2023/12/13 00:31:54;;;;;;;11.37;4.80;;;;;;;7.16;100.00;98919.09;4947613;28;20295;-74
2023/12/13 00:34:20;;;;;;;10.53;4.90;;;;;;;7.08;100.00;98918.22;4945347;28;20218;-74
2023/12/13 00:36:47;;;;;;;9.77;4.60;;;;;;;7.00;100.00;98912.03;4952562;28;20614;-74
2023/12/13 00:39:14;;;;;;;9.87;4.90;;;;;;;7.02;100.00;98918.19;4948386;28;20237;-74
2023/12/13 00:41:41;;;;;;;8.87;4.77;;;;;;;7.01;100.00;98920.81;4948283;28;20398;-74
2023/12/13 00:44:07;;;;;;;11.93;4.50;;;;;;;6.98;100.00;98921.69;4964673;28;20314;-74
2023/12/13 00:46:34;;;;;;;10.73;4.97;;;;;;;7.11;100.00;98923.47;4950015;28;20579;-74
2023/12/13 00:49:00;;;;;;;11.00;5.10;;;;;;;7.10;100.00;98908.56;4954267;28;20202;-74
2023/12/13 00:51:27;;;;;;;11.87;4.87;;;;;;;7.11;100.00;98922.59;4951766;28;20224;-74
2023/12/13 00:53:54;;;;;;;9.50;4.77;;;;;;;7.03;100.00;98911.16;4959737;28;20194;-74
2023/12/13 00:56:21;;;;;;;9.90;4.50;;;;;;;7.03;100.00;98906.78;4948055;28;20223;-74
2023/12/13 00:58:47;;;;;;;9.63;4.70;;;;;;;7.08;100.00;98907.69;4947500;28;20335;-74
2023/12/13 01:01:14;;;;;;;8.43;4.30;;;;;;;7.13;100.00;98915.59;4947866;28;20300;-74
2023/12/13 01:03:41;;;;;;;14.80;5.20;;;;;;;7.08;100.00;98912.94;4946576;28;20253;-74
2023/12/13 01:06:11;;;;;;;11.73;4.50;;;;;;;7.12;100.00;98925.25;4950374;28;20283;-74
2023/12/13 01:08:38;;;;;;;9.37;4.73;;;;;;;7.08;100.00;98909.44;4947885;28;20199;-74
2023/12/13 01:11:09;;;;;;;9.93;5.17;;;;;;;7.16;100.00;98919.09;4946978;28;20223;-74
2023/12/13 01:13:37;;;;;;;8.87;4.40;;;;;;;7.27;100.00;98915.66;4944269;28;20653;-74
2023/12/13 01:16:03;;;;;;;11.73;5.53;;;;;;;7.29;100.00;98922.69;4949159;28;20210;-74
2023/12/13 01:18:30;;;;;;;10.73;5.13;;;;;;;7.23;100.00;98925.31;4947915;28;20201;-74
2023/12/13 01:20:56;;;;;;;10.37;5.07;;;;;;;7.23;100.00;98920.03;4950831;28;20501;-74
2023/12/13 01:23:23;;;;;;;11.07;5.47;;;;;;;7.19;100.00;98928.75;4942733;28;20568;-74
2023/12/13 01:25:49;;;;;;;13.17;5.63;;;;;;;7.16;100.00;98928.75;4949342;28;20763;-74
2023/12/13 01:28:16;;;;;;;13.80;5.20;;;;;;;7.11;100.00;98928.75;4962961;28;20251;-74
2023/12/13 01:30:42;;;;;;;11.27;5.10;;;;;;;7.10;100.00;98928.75;4948642;28;20296;-74
2023/12/13 01:33:09;;;;;;;13.63;5.17;;;;;;;7.14;100.00;98934.03;4945241;28;20213;-74
2023/12/13 01:35:35;;;;;;;12.97;5.07;;;;;;;7.16;100.00;98936.66;4962044;28;20678;-74
2023/12/13 01:38:02;;;;;;;13.67;5.00;;;;;;;7.11;100.00;98935.75;4949235;28;20242;-74
2023/12/13 01:40:29;;;;;;;10.50;4.57;;;;;;;7.12;100.00;98950.69;4950170;28;20221;-74
2023/12/13 01:42:55;;;;;;;11.53;5.33;;;;;;;7.11;100.00;98943.66;4946994;28;20201;-74
2023/12/13 01:45:22;;;;;;;11.73;5.23;;;;;;;7.11;100.00;98941.91;4945902;28;20222;-74
2023/12/13 01:47:48;;;;;;;12.80;4.93;;;;;;;7.03;100.00;98930.47;4947717;28;20249;-74
2023/12/13 01:50:15;;;;;;;11.90;5.37;;;;;;;7.08;100.00;98934.00;4946925;28;20237;-74
2023/12/13 01:52:42;;;;;;;10.00;4.67;;;;;;;7.05;100.00;98927.84;4948542;28;20283;-74
2023/12/13 01:55:10;;;;;;;10.73;5.10;;;;;;;7.04;100.00;98932.22;4952102;28;20206;-74
2023/12/13 01:57:37;;;;;;;9.87;4.80;;;;;;;7.00;100.00;98925.19;4966659;28;20281;-74
2023/12/13 02:00:04;;;;;;;10.83;5.47;;;;;;;7.04;100.00;98926.97;4949214;28;20218;-74
2023/12/13 02:02:31;;;;;;;10.63;5.07;;;;;;;7.06;100.00;98924.34;4951440;28;20262;-74
2023/12/13 02:04:59;;;;;;;11.93;5.53;;;;;;;6.97;100.00;98908.53;4949441;28;20225;-74
2023/12/13 02:07:26;;;;;;;16.90;6.40;;;;;;;7.08;100.00;98927.84;4950293;28;20288;-74
2023/12/13 02:09:53;;;;;;;14.10;5.97;;;;;;;7.10;100.00;98927.00;4951350;28;20947;-74
2023/12/13 02:12:19;;;;;;;12.43;5.57;;;;;;;6.97;100.00;98921.69;4947531;28;20214;-75
2023/12/13 02:14:46;;;;;;;12.57;5.20;;;;;;;6.88;100.00;98912.88;4950163;28;20203;-75
2023/12/13 02:17:13;;;;;;;11.10;5.73;;;;;;;6.86;100.00;98922.53;4949930;28;20202;-74
2023/12/13 02:19:39;;;;;;;11.50;4.93;;;;;;;6.76;100.00;98914.56;4950533;28;20281;-75
2023/12/13 02:22:07;;;;;;;18.90;6.07;;;;;;;6.78;100.00;98923.34;4946234;28;20668;-75
2023/12/13 02:24:37;;;;;;;14.93;5.83;;;;;;;6.81;100.00;98926.88;4946950;28;20238;-74
2023/12/13 02:27:03;;;;;;;15.80;5.50;;;;;;;6.66;100.00;98920.66;4951862;28;20195;-74
2023/12/13 02:29:30;;;;;;;13.90;5.80;;;;;;;6.59;100.00;98925.00;4951787;28;20232;-74
2023/12/13 02:31:57;;;;;;;17.23;5.50;;;;;;;6.61;100.00;98912.75;4950429;28;20198;-74
2023/12/13 02:34:23;;;;;;;19.27;5.47;;;;;;;6.69;100.00;98911.03;4949932;28;20204;-75
2023/12/13 02:36:50;;;;;;;36.73;5.10;;;;;;;6.68;100.00;98909.25;4947204;28;20273;-74
2023/12/13 02:39:16;;;;;;;20.87;5.50;;;;;;;6.62;100.00;98921.50;4950524;28;20221;-74
2023/12/13 02:41:42;;;;;;;11.10;4.93;;;;;;;6.64;100.00;98920.66;4951164;28;20213;-74
2023/12/13 02:44:11;;;;;;;24.50;5.17;;;;;;;6.57;100.00;98913.59;4948745;28;20218;-74
2023/12/13 02:46:37;;;;;;;12.30;4.83;;;;;;;6.57;100.00;98913.59;4951828;28;20210;-74
2023/12/13 02:49:04;;;;;;;11.33;5.00;;;;;;;6.63;100.00;98908.38;4950182;28;20683;-75
2023/12/13 02:51:30;;;;;;;17.03;4.47;;;;;;;6.68;100.00;98913.66;4951161;28;20265;-75
2023/12/13 02:53:57;;;;;;;16.97;5.03;;;;;;;6.66;100.00;98897.84;4947771;28;20200;-74
2023/12/13 02:56:23;;;;;;;16.03;4.63;;;;;;;6.80;100.00;98909.31;4949611;28;20454;-74
2023/12/13 02:58:50;;;;;;;12.53;4.60;;;;;;;6.76;100.00;98904.91;4950909;28;20687;-74
2023/12/13 03:01:17;;;;;;;10.83;4.57;;;;;;;6.80;100.00;98903.16;4965333;28;20752;-74
2023/12/13 03:03:43;;;;;;;11.33;4.00;;;;;;;6.77;100.00;98901.41;4948764;28;21064;-75
2023/12/13 03:06:09;;;;;;;12.90;4.17;;;;;;;6.76;100.00;98904.03;4947125;28;20294;-75
2023/12/13 03:08:36;;;;;;;14.60;4.03;;;;;;;6.66;100.00;98908.38;4950982;28;20229;-74
2023/12/13 03:11:03;;;;;;;8.03;3.90;;;;;;;6.59;100.00;98896.94;4950464;28;20253;-74
2023/12/13 03:13:29;;;;;;;22.50;4.20;;;;;;;6.69;100.00;98897.88;4961232;28;20214;-74
2023/12/13 03:15:55;;;;;;;13.07;4.23;;;;;;;6.72;100.00;98897.00;4950626;28;20374;-74
2023/12/13 03:18:22;;;;;;;12.77;4.13;;;;;;;6.68;100.00;98888.22;4949940;28;20198;-75
2023/12/13 03:20:49;;;;;;;14.53;4.50;;;;;;;6.65;100.00;98882.06;4949558;28;20230;-74
2023/12/13 03:23:15;;;;;;;7.20;4.00;;;;;;;6.58;100.00;98876.78;4948820;28;20559;-75
2023/12/13 03:25:41;;;;;;;10.53;4.27;;;;;;;6.64;100.00;98877.69;4948892;28;20253;-74
2023/12/13 03:28:08;;;;;;;11.33;3.97;;;;;;;6.61;100.00;98865.41;4961699;28;20582;-74
2023/12/13 03:30:35;;;;;;;8.90;4.27;;;;;;;6.51;100.00;98855.72;4948755;28;20225;-75
2023/12/13 03:33:01;;;;;;;10.07;4.43;;;;;;;6.51;100.00;98864.47;4949971;28;20210;-75
2023/12/13 03:35:28;;;;;;;15.77;4.23;;;;;;;6.58;100.00;98876.78;4959936;28;20195;-74
2023/12/13 03:37:54;;;;;;;17.03;4.83;;;;;;;6.47;100.00;98869.72;4948610;28;20235;-75
2023/12/13 03:40:21;;;;;;;13.20;4.43;;;;;;;6.42;100.00;98874.06;4950591;28;20217;-74
2023/12/13 03:42:47;;;;;;;10.97;4.13;;;;;;;6.42;100.00;98871.44;4946894;28;20595;-74
2023/12/13 03:45:14;;;;;;;8.33;4.30;;;;;;;6.39;100.00;98871.41;4952492;28;20604;-75
2023/12/13 03:47:40;;;;;;;8.43;4.30;;;;;;;6.33;100.00;98861.72;4949943;28;20198;-74
2023/12/13 03:50:08;;;;;;;8.53;4.43;;;;;;;6.39;100.00;98871.41;4950310;28;20705;-74
2023/12/13 03:52:35;;;;;;;8.33;4.37;;;;;;;6.41;100.00;98864.44;4948386;28;20199;-74
2023/12/13 03:55:01;;;;;;;11.10;4.00;;;;;;;6.39;100.00;98858.25;4947357;28;20293;-75
2023/12/13 03:57:28;;;;;;;8.83;4.20;;;;;;;6.40;100.00;98874.03;4951002;28;20202;-75
2023/12/13 03:59:54;;;;;;;8.60;4.37;;;;;;;6.39;100.00;98871.41;4949306;28;20241;-75
2023/12/13 04:02:21;;;;;;;10.13;4.27;;;;;;;6.37;100.00;98873.16;4950255;28;20710;-75
2023/12/13 04:04:48;;;;;;;8.53;4.20;;;;;;;6.29;100.00;98858.22;4949465;28;20214;-74
2023/12/13 04:07:14;;;;;;;6.47;3.60;;;;;;;6.34;100.00;98858.22;4950335;28;20214;-75
2023/12/13 04:09:41;;;;;;;9.57;4.40;;;;;;;6.39;100.00;98850.38;4948557;28;20214;-75
2023/12/13 04:12:07;;;;;;;10.13;4.73;;;;;;;6.42;100.00;98851.28;4949722;28;20211;-75
2023/12/13 04:14:34;;;;;;;10.13;4.70;;;;;;;6.39;100.00;98850.38;4949808;28;20201;-75
2023/12/13 04:17:00;;;;;;;9.23;4.97;;;;;;;6.31;100.00;98838.94;4948891;28;20202;-75
2023/12/13 04:19:27;;;;;;;9.53;4.93;;;;;;;6.38;100.00;98852.13;4948687;28;20206;-74
2023/12/13 04:21:53;;;;;;;8.90;4.60;;;;;;;6.44;100.00;98848.66;4947145;28;20209;-74
2023/12/13 04:24:20;;;;;;;7.73;4.40;;;;;;;6.51;100.00;98856.59;4950126;28;20221;-75
2023/12/13 04:26:46;;;;;;;10.40;4.80;;;;;;;6.48;100.00;98853.06;4949449;28;20209;-74
2023/12/13 04:29:13;;;;;;;7.97;4.20;;;;;;;6.48;100.00;98853.94;4948029;28;20678;-75
2023/12/13 04:31:41;;;;;;;8.73;4.20;;;;;;;6.48;100.00;98853.94;4947576;28;20236;-74
2023/12/13 04:34:08;;;;;;;13.87;4.93;;;;;;;6.49;100.00;98857.47;4946868;28;20267;-74
2023/12/13 04:36:34;;;;;;;9.53;4.47;;;;;;;6.40;100.00;98857.38;4948836;28;20198;-74
2023/12/13 04:39:01;;;;;;;9.90;4.10;;;;;;;6.38;100.00;98851.25;4950462;28;20205;-75
2023/12/13 04:41:27;;;;;;;11.77;4.57;;;;;;;6.37;100.00;98852.09;4961641;28;20223;-74
2023/12/13 04:43:53;;;;;;;9.87;4.30;;;;;;;6.33;100.00;98852.97;4962126;28;20258;-74
2023/12/13 04:46:20;;;;;;;8.83;4.43;;;;;;;6.23;100.00;98844.16;4949692;28;20344;-74
2023/12/13 04:48:46;;;;;;;8.93;4.03;;;;;;;6.08;100.00;98834.44;4948028;28;20205;-75
2023/12/13 04:51:13;;;;;;;9.70;4.43;;;;;;;5.95;100.00;98827.34;4947246;28;20228;-74
2023/12/13 04:53:39;;;;;;;11.07;4.73;;;;;;;5.85;100.00;98829.00;4947956;28;20227;-74
2023/12/13 04:56:06;;;;;;;8.73;4.07;;;;;;;5.68;100.00;98828.00;4955750;28;20194;-74
2023/12/13 04:58:33;;;;;;;8.60;4.30;;;;;;;5.48;100.00;98829.56;4951296;28;20229;-74
2023/12/13 05:00:59;;;;;;;9.73;4.13;;;;;;;5.30;100.00;98812.81;4963157;28;20228;-74
2023/12/13 05:03:28;;;;;;;11.50;4.30;;;;;;;5.10;100.00;98810.84;4948014;28;20208;-74
2023/12/13 05:05:54;;;;;;;9.37;4.80;;;;;;;5.05;100.00;98823.94;4948519;28;20220;-74
2023/12/13 05:08:21;;;;;;;10.07;4.13;;;;;;;4.94;100.00;98829.06;4947145;28;20207;-74
2023/12/13 05:10:47;;;;;;;9.17;4.67;;;;;;;4.99;100.00;98809.00;4948061;28;20236;-75
2023/12/13 05:13:14;;;;;;;12.07;4.80;;;;;;;5.19;100.00;98813.56;4947556;28;20228;-75
2023/12/13 05:15:40;;;;;;;8.70;4.53;;;;;;;5.28;100.00;98817.16;4948117;28;20308;-74
2023/12/13 05:18:07;;;;;;;7.93;4.33;;;;;;;5.40;100.00;98836.50;4947520;28;20201;-75
2023/12/13 05:20:33;;;;;;;9.67;4.23;;;;;;;5.50;100.00;98833.09;4949872;28;20227;-74
2023/12/13 05:23:00;;;;;;;8.17;4.00;;;;;;;5.59;100.00;98833.16;4948693;28;20205;-74
2023/12/13 05:25:26;;;;;;;8.33;4.10;;;;;;;5.62;100.00;98834.09;4949674;28;20584;-75
2023/12/13 05:27:53;;;;;;;10.17;4.57;;;;;;;5.62;100.00;98815.72;4948858;28;20264;-74
2023/12/13 05:30:19;;;;;;;10.97;4.63;;;;;;;5.70;100.00;98821.00;4952922;28;20221;-74
2023/12/13 05:32:46;;;;;;;9.33;4.50;;;;;;;5.71;100.00;98825.41;4949767;28;20301;-74
2023/12/13 05:35:13;;;;;;;10.13;4.90;;;;;;;5.73;100.00;98830.66;4951925;28;20293;-75
2023/12/13 05:37:39;;;;;;;11.60;5.30;;;;;;;5.85;100.00;98826.38;4952577;28;20198;-74
2023/12/13 05:40:06;;;;;;;9.23;4.77;;;;;;;5.95;100.00;98827.34;4950715;28;20221;-74
2023/12/13 05:42:33;;;;;;;10.10;4.90;;;;;;;6.03;100.00;98819.53;4951415;28;20219;-74
2023/12/13 05:45:00;;;;;;;9.67;4.73;;;;;;;6.10;100.00;98824.81;4952878;28;20218;-74
2023/12/13 05:47:28;;;;;;;11.20;5.23;;;;;;;6.16;100.00;98816.97;4951864;28;20203;-75
2023/12/13 05:49:55;;;;;;;11.77;5.33;;;;;;;6.12;100.00;98815.19;4972794;23;20861;-71
2023/12/13 05:52:21;;;;;;;14.30;5.40;;;;;;;6.05;100.00;98807.28;4996195;28;20229;-71
2023/12/13 05:54:48;;;;;;;11.17;5.20;;;;;;;5.92;100.00;98809.81;4996404;28;20198;-71
2023/12/13 05:57:14;;;;;;;10.83;5.40;;;;;;;5.81;100.00;98808.81;4998195;28;20227;-71
2023/12/13 05:59:40;;;;;;;9.73;5.03;;;;;;;5.57;100.00;98804.25;4997847;28;20225;-71
2023/12/13 06:02:08;;;;;;;12.43;5.13;;;;;;;5.40;100.00;98800.63;4988217;28;20206;-71
2023/12/13 06:04:34;;;;;;;13.23;5.23;;;;;;;5.33;100.00;98804.97;4991401;28;20236;-71
2023/12/13 06:07:01;;;;;;;15.03;6.03;;;;;;;5.29;100.00;98808.44;4993887;28;20208;-71
2023/12/13 06:09:29;;;;;;;15.77;6.13;;;;;;;5.33;100.00;98810.22;4993544;28;20201;-71
2023/12/13 06:11:55;;;;;;;9.70;4.90;;;;;;;5.31;100.00;98816.31;4985103;28;20295;-71
2023/12/13 06:14:22;;;;;;;17.13;6.27;;;;;;;5.35;100.00;98813.72;4989973;28;20216;-71
2023/12/13 06:16:48;;;;;;;13.97;5.97;;;;;;;5.40;100.00;98812.88;4991846;28;20209;-71
2023/12/13 06:19:14;;;;;;;11.40;5.90;;;;;;;5.47;100.00;98812.06;4992357;28;20247;-71
2023/12/13 06:21:41;;;;;;;20.00;6.70;;;;;;;5.59;100.00;98810.41;5007049;28;20232;-71
2023/12/13 06:24:08;;;;;;;12.93;5.70;;;;;;;5.79;100.00;98813.19;4985716;28;20680;-71
2023/12/13 06:26:34;;;;;;;13.47;6.10;;;;;;;5.83;100.00;98814.97;4988903;28;20230;-71
2023/12/13 06:29:01;;;;;;;14.07;6.33;;;;;;;5.91;100.00;98812.41;4987042;28;20209;-71
2023/12/13 06:31:27;;;;;;;15.33;6.27;;;;;;;5.93;100.00;98813.31;4991349;28;20232;-71
2023/12/13 06:33:54;;;;;;;17.10;6.30;;;;;;;6.02;100.00;98809.88;4989101;28;20208;-71
2023/12/13 06:36:20;;;;;;;12.17;5.73;;;;;;;6.14;100.00;98807.31;5006926;28;20327;-71
2023/12/13 06:38:47;;;;;;;14.33;5.50;;;;;;;6.09;100.00;98804.66;4991431;28;20653;-71
2023/12/13 06:41:14;;;;;;;11.57;5.33;;;;;;;6.13;100.00;98805.56;4991293;28;20220;-71
2023/12/13 06:43:40;;;;;;;16.80;6.23;;;;;;;6.14;100.00;98802.06;4987150;28;20214;-71
2023/12/13 06:46:07;;;;;;;16.83;6.30;;;;;;;6.14;100.00;98808.19;4989832;28;20762;-71
2023/12/13 06:48:33;;;;;;;11.23;5.60;;;;;;;6.17;100.00;98797.69;4989976;28;20204;-71
2023/12/13 06:51:00;;;;;;;15.23;6.33;;;;;;;6.22;100.00;98797.72;4994958;28;20467;-70
2023/12/13 06:53:26;;;;;;;11.37;5.37;;;;;;;6.28;100.00;98805.63;4987231;28;20255;-71
2023/12/13 06:55:54;;;;;;;12.00;5.93;;;;;;;6.32;100.00;98794.25;4983625;28;20252;-70
2023/12/13 06:58:20;;;;;;;12.03;6.20;;;;;;;6.35;100.00;98796.91;4991122;28;20209;-70
2023/12/13 07:00:47;;;;;;;16.00;6.20;;;;;;;6.46;100.00;98803.09;4989481;28;20849;-70
2023/12/13 07:03:13;;;;;;;15.20;6.30;;;;;;;6.45;100.00;98789.94;4990064;28;20203;-71
2023/12/13 07:05:40;;;;;;;11.53;5.57;;;;;;;6.47;100.00;98789.09;4984900;28;20743;-72
2023/12/13 07:08:08;;;;;;;16.23;6.43;;;;;;;6.50;100.00;98782.94;4989086;28;20233;-71
2023/12/13 07:10:34;;;;;;;22.17;7.00;;;;;;;6.51;100.00;98780.31;4977007;28;20217;-73
2023/12/13 07:13:01;;;;;;;14.20;6.23;;;;;;;6.53;100.00;98781.22;4997259;28;20491;-72
2023/12/13 07:15:27;;;;;;;15.47;6.00;;;;;;;6.52;100.00;98774.19;4985508;28;20201;-71
2023/12/13 07:17:54;;;;;;;14.10;6.03;;;;;;;6.60;100.00;98776.84;4982326;28;20297;-71
2023/12/13 07:20:21;;;;;;;11.73;5.53;;;;;;;6.67;100.00;98775.97;4988022;28;20285;-71
2023/12/13 07:22:50;;;;;;;17.83;6.40;;;;;;;6.64;100.00;98773.34;4985351;28;20200;-70
2023/12/13 07:25:16;;;;;;;13.03;5.87;;;;;;;6.59;100.00;98775.09;4985041;28;20383;-71
2023/12/13 07:27:43;;;;;;;12.93;5.87;;;;;;;6.60;100.00;98779.47;4990035;28;20214;-70
2023/12/13 07:30:09;;;;;;;12.63;5.70;;;;;;;6.58;100.00;98783.84;4991077;28;20223;-70
2023/12/13 07:32:36;;;;;;;13.57;5.20;;;;;;;6.63;100.00;98790.00;4990704;28;20204;-70
2023/12/13 07:35:03;;;;;;;11.93;5.33;;;;;;;6.66;100.00;98789.13;4986710;28;20204;-70
2023/12/13 07:37:30;;;;;;;16.80;6.17;;;;;;;6.71;100.00;98785.63;4990448;28;20616;-70
2023/12/13 07:39:56;;;;;;;14.27;5.67;;;;;;;6.77;100.00;98797.94;4989503;28;20323;-70
2023/12/13 07:42:22;;;;;;;10.53;5.27;;;;;;;6.80;100.00;98788.28;4989454;28;20266;-69
2023/12/13 07:44:49;;;;;;;7.73;4.00;;;;;;;6.83;100.00;98792.72;4989531;28;20296;-69
2023/12/13 07:47:15;;;;;;;10.10;4.37;;;;;;;6.84;100.00;98797.09;5006920;28;20205;-71
2023/12/13 07:49:42;;;;;;;12.60;4.10;;;;;;;6.85;100.00;98790.97;4992122;28;20239;-71
2023/12/13 07:52:09;;;;;;;7.47;3.60;;;;;;;6.88;100.00;98793.59;4988159;28;20218;-71
2023/12/13 07:54:35;;;;;;;7.87;3.67;;;;;;;6.89;100.00;98793.59;4990106;28;20208;-71
2023/12/13 07:57:01;;;;;;;10.33;4.17;;;;;;;6.94;100.00;98785.72;4990699;28;20209;-71
2023/12/13 07:59:28;;;;;;;9.37;3.80;;;;;;;6.91;100.00;98789.22;4986479;28;20368;-71
2023/12/13 08:01:56;;;;;;;10.53;4.00;;;;;;;7.02;100.00;98778.69;4989571;28;20266;-71
2023/12/13 08:04:28;;;;;;;14.47;3.87;;;;;;;7.04;100.00;98790.09;4990997;28;20204;-70
2023/12/13 08:06:54;;;;;;;8.03;3.60;;;;;;;7.06;100.00;98790.09;5004459;28;20694;-71
2023/12/13 08:09:23;;;;;;;10.80;4.17;;;;;;;7.05;100.00;98794.50;4989585;28;20252;-70
2023/12/13 08:11:53;;;;;;;13.87;4.83;;;;;;;7.05;100.00;98796.25;4988967;28;20209;-72
2023/12/13 08:14:19;;;;;;;9.73;4.00;;;;;;;7.06;100.00;98793.63;4989915;28;20201;-71
2023/12/13 08:16:47;;;;;;;10.90;4.00;;;;;;;7.06;100.00;98790.97;4989941;28;20486;-71
2023/12/13 08:19:16;;;;;;;6.83;4.10;;;;;;;7.02;100.00;98799.75;4981211;28;20236;-71
2023/12/13 08:21:43;;;;;;;10.07;3.77;;;;;;;7.03;100.00;98796.25;4987018;28;20232;-71
2023/12/13 08:24:10;;;;;;;9.93;3.93;;;;;;;7.02;100.00;98794.50;4988837;28;20213;-70
2023/12/13 08:26:37;;;;;;;12.10;3.83;;;;;;;7.02;100.00;98790.97;4988584;28;20312;-71
2023/12/13 08:29:04;;;;;;;10.93;3.43;;;;;;;7.03;100.00;98790.09;5004145;28;20212;-72
2023/12/13 08:31:33;;;;;;;9.00;3.50;;;;;;;7.12;100.00;98798.88;4990110;28;20230;-71
2023/12/13 08:34:00;;;;;;;9.83;3.40;;;;;;;7.13;100.00;98798.00;4987804;28;20225;-70
2023/12/13 08:36:27;;;;;;;6.83;2.97;;;;;;;7.13;100.00;98792.75;4992098;28;20595;-70
2023/12/13 08:38:54;;;;;;;13.20;3.60;;;;;;;7.20;100.00;98794.53;4989384;28;20204;-70
2023/12/13 08:41:21;;;;;;;9.63;3.03;;;;;;;7.22;100.00;98798.03;4988757;28;20233;-70
2023/12/13 08:43:47;;;;;;;7.93;3.43;;;;;;;7.32;100.00;98795.41;4987931;28;20668;-71
2023/12/13 08:46:14;;;;;;;8.33;3.50;;;;;;;7.45;100.00;98805.94;4990166;28;20705;-70
2023/12/13 08:48:40;;;;;;;7.63;3.47;;;;;;;7.55;100.00;98802.41;4989270;28;20293;-70
2023/12/13 08:51:07;;;;;;;10.77;4.17;;;;;;;7.71;100.00;98799.81;4996636;28;20256;-70
2023/12/13 08:53:34;;;;;;;13.77;4.73;;;;;;;7.82;100.00;98800.66;4985137;28;20644;-70
2023/12/13 08:56:00;;;;;;;12.87;4.37;;;;;;;7.91;100.00;98789.22;4988361;28;20198;-70
2023/12/13 08:58:30;;;;;;;7.50;3.27;;;;;;;8.00;100.00;98792.69;4988391;28;20212;-68
2023/12/13 09:00:59;;;;;;;9.13;3.70;;;;;;;8.03;100.00;98792.72;4994444;28;20584;-71
2023/12/13 09:03:26;;;;;;;8.90;3.90;;;;;;;8.07;100.00;98778.66;4987012;28;20210;-71
2023/12/13 09:05:53;;;;;;;12.10;4.17;;;;;;;8.06;100.00;98781.31;5006490;28;20232;-73
2023/12/13 09:08:19;;;;;;;9.53;4.00;;;;;;;8.04;100.00;98783.06;5004253;28;20230;-71
2023/12/13 09:10:46;;;;;;;9.93;4.00;;;;;;;8.01;100.00;98788.34;5008253;28;20294;-72
2023/12/13 09:13:13;;;;;;;9.60;3.70;;;;;;;7.91;100.00;98778.69;4995806;28;20206;-72
2023/12/13 09:15:40;;;;;;;9.27;3.70;;;;;;;7.85;100.00;98787.47;4988915;28;20288;-70
2023/12/13 09:18:06;;;;;;;10.83;4.17;;;;;;;7.83;100.00;98794.50;4992206;28;20212;-72
2023/12/13 09:20:33;;;;;;;6.37;3.30;;;;;;;7.92;100.00;98783.06;5007610;28;20225;-72
2023/12/13 09:23:00;;;;;;;7.67;3.67;;;;;;;8.05;100.00;98793.59;4992525;28;20198;-72
2023/12/13 09:25:28;;;;;;;11.83;4.33;;;;;;;8.16;100.00;98791.81;5008660;28;20297;-71
2023/12/13 09:27:54;;;;;;;7.30;3.03;;;;;;;8.31;100.00;98792.63;4993923;28;20212;-71
2023/12/13 09:30:21;;;;;;;11.20;3.40;;;;;;;8.50;100.00;98791.72;4986771;28;20786;-71
2023/12/13 09:32:48;;;;;;;8.87;3.80;;;;;;;8.58;100.00;98782.00;4992527;28;20303;-71
2023/12/13 09:35:14;;;;;;;7.60;3.60;;;;;;;8.71;100.00;98788.97;4993307;28;20201;-71
2023/12/13 09:37:41;;;;;;;9.10;3.90;;;;;;;8.75;100.00;98787.19;4991964;28;20216;-71
2023/12/13 09:40:17;;;;;;;8.23;3.80;;;;;;;8.93;100.00;98789.75;4993314;28;20223;-71
2023/12/13 09:42:47;;;;;;;13.20;3.53;;;;;;;9.05;100.00;98783.50;4989189;28;20300;-70
2023/12/13 09:45:21;;;;;;;7.37;3.73;;;;;;;8.96;100.00;98786.22;4992078;28;20201;-70
2023/12/13 09:47:51;;;;;;;8.97;4.00;;;;;;;8.97;100.00;98790.63;4991289;28;20523;-72
2023/12/13 09:50:20;;;;;;;11.17;3.90;;;;;;;9.05;100.00;98791.44;4992786;28;20256;-72
2023/12/13 09:52:47;;;;;;;8.27;3.53;;;;;;;8.94;100.00;98793.28;4994301;28;20209;-71
2023/12/13 09:55:15;;;;;;;7.43;3.40;;;;;;;8.93;100.00;98796.81;5006420;28;20229;-70
2023/12/13 09:57:43;;;;;;;6.90;3.37;;;;;;;8.94;100.00;98802.06;4984161;28;20584;-70
2023/12/13 10:00:13;;;;;;;11.23;3.80;;;;;;;8.86;100.00;98798.59;4990019;28;20634;-72
2023/12/13 10:02:40;;;;;;;8.87;4.20;;;;;;;8.89;100.00;98803.88;4991031;28;20275;-72
2023/12/13 10:05:09;;;;;;;9.00;3.93;;;;;;;9.02;100.00;98787.06;4992276;28;20616;-72
2023/12/13 10:07:36;;;;;;;9.03;3.90;;;;;;;9.04;100.00;98784.41;4992442;28;20216;-72
2023/12/13 10:10:04;;;;;;;7.30;3.93;;;;;;;9.05;100.00;98783.50;4989549;28;20220;-72
2023/12/13 10:12:31;;;;;;;10.83;3.87;;;;;;;9.06;100.00;98790.56;4989923;28;20305;-73
2023/12/13 10:15:10;;;;;;;4.03;2.53;;;;;;;9.09;100.00;98795.81;4992651;28;20276;-71
2023/12/13 10:17:37;;;;;;;7.47;2.90;;;;;;;8.97;100.00;98791.50;4990131;28;20378;-71
2023/12/13 10:20:06;;;;;;;8.57;3.40;;;;;;;8.89;100.00;98798.59;4993093;28;20253;-72
2023/12/13 10:22:33;;;;;;;8.33;2.73;;;;;;;8.95;100.00;98798.53;4992150;28;20216;-71
2023/12/13 10:25:00;;;;;;;8.33;3.50;;;;;;;9.03;100.00;98793.22;4989723;28;20211;-72
2023/12/13 10:27:26;;;;;;;6.30;3.07;;;;;;;8.88;100.00;98793.31;4988647;28;20220;-72
2023/12/13 10:29:53;;;;;;;7.00;2.97;;;;;;;8.74;100.00;98793.38;4989077;28;20716;-72
2023/12/13 10:32:20;;;;;;;7.43;3.40;;;;;;;8.68;100.00;98794.28;4990106;28;20274;-73
2023/12/13 10:34:46;;;;;;;6.60;2.97;;;;;;;8.67;100.00;98792.53;4991524;28;20240;-72
2023/12/13 10:37:13;;;;;;;5.27;2.70;;;;;;;8.71;100.00;98796.91;5005002;28;20267;-73
2023/12/13 10:39:46;;;;;;;5.93;2.87;;;;;;;8.86;100.00;98790.69;4988331;28;20219;-73
2023/12/13 10:42:17;;;;;;;4.90;2.97;;;;;;;8.97;100.00;98798.53;4987843;28;20204;-73
2023/12/13 10:44:45;;;;;;;6.00;3.10;;;;;;;8.98;100.00;98793.25;4990827;28;20204;-74
2023/12/13 10:47:12;;;;;;;6.30;3.00;;;;;;;9.05;100.00;98787.03;4990447;28;20226;-73
2023/12/13 10:49:41;;;;;;;6.97;3.17;;;;;;;8.91;100.00;98785.38;5006927;28;20579;-70
2023/12/13 10:52:08;;;;;;;6.47;2.97;;;;;;;8.96;100.00;98791.50;4992392;28;20221;-72
2023/12/13 10:54:37;;;;;;;5.23;3.13;;;;;;;8.86;100.00;98782.75;4990431;28;20208;-71
2023/12/13 10:57:04;;;;;;;9.50;3.27;;;;;;;8.79;100.00;98794.22;4997054;28;20252;-70
2023/12/13 10:59:31;;;;;;;5.33;3.13;;;;;;;8.73;100.00;98795.13;4989548;28;20227;-70
2023/12/13 11:01:58;;;;;;;3.37;2.60;;;;;;;8.71;100.00;98806.56;4988977;28;20705;-70
2023/12/13 11:04:25;;;;;;;7.00;2.60;;;;;;;8.79;100.00;98804.78;4988189;28;20204;-72
2023/12/13 11:06:52;;;;;;;4.93;2.57;;;;;;;8.85;100.00;98798.63;4996038;28;20576;-70
2023/12/13 11:09:20;;;;;;;9.80;3.30;;;;;;;8.94;100.00;98795.91;4991334;28;20197;-70
2023/12/13 11:11:47;;;;;;;8.13;3.60;;;;;;;9.26;100.00;98793.94;4989341;28;20215;-70
2023/12/13 11:14:17;;;;;;;6.77;2.73;;;;;;;9.59;100.00;98787.50;4986116;28;20597;-70
2023/12/13 11:16:49;;;;;;;5.70;3.33;;;;;;;9.91;100.00;98779.28;4988728;28;20295;-70
2023/12/13 11:19:21;;;;;;;6.00;2.77;;;;;;;10.21;100.00;98770.19;4990262;28;20201;-70
2023/12/13 11:21:51;;;;;;;5.33;2.77;;;;;;;10.48;100.00;98771.66;4987450;28;20227;-70
2023/12/13 11:24:25;;;;;;;5.70;2.87;;;;;;;10.56;100.00;98767.13;4988817;28;20289;-70
2023/12/13 11:26:53;;;;;;;4.73;2.80;;;;;;;10.44;100.00;98763.78;4990168;28;20230;-70